Airfield :
LOGIN :

Register | Disclaimer

   EN    FR    IT 

 










Legend :    VFR   Marginal VFR   IFR   Intensive IFR   Very Intensive IFR
Visi :
Ceiling :
>= 8 km
>= 3000ft
5 to 8 km
1000 to 3000 ft
1500m to 5 km
500 to 1000 ft
800 to 1500m
200 to 500 ft
< 800m
< 200 ft
Symbols :   Thunderstorms  Fog  Heavy snow  Heavy precipitations  Wind > 20 kt
SIGMETs :     Misc.  Thunderstorms  Icing  Turbulence  Mountain Waves  Volcanic Ashes






- Airport Elevation : 995 ft
- IATA code : KTW


EPKT - Katowice

CURRENT METAR :
  • 230230Z 28007KT 9000 FEW004 BKN006 00/M00 Q1032

EXPIRED METARs :
  • 230200Z 28007KT 8000 SCT005 BKN007 01/M00 Q1032
  • 230130Z 28006KT 9000 FEW006 SCT008 BKN010 01/M00 Q1032
  • 230100Z 28007KT 9000 FEW007 BKN010 01/00 Q1032
  • 230030Z 29007KT 9999 SCT006 BKN011 01/00 Q1032
  • 230000Z 29007KT 9999 FEW007 SCT009 BKN011 01/00 Q1031

TAF TAF EPKT
Valid from the 23 at 00:00 until the 24 at 00:00 UTC


222330Z 2300/2324 29008KT 9999 BKN015
TEMPO 2300/2308 3000 BR BKN008



MET'MAP, your aeronautical weather chart ! - Copyright ORBIFLY December 2007 - Disclaimer

ORBIFLY MET'MAP TEAM :

Programming & Development : Alexandra Zaïnal
Concept & original design : Baudouin d'Aumeries
Assistance for programming : Marc-Olivier Méhu
Technical & hardware support : Manuel Goepfert

Contact : metmap@orbifly.com




SOURCES & CREDITS :

   NOAA